EZY5MB EGKK-EGNT
Flight info
| Callsign | EZY5MB |
|---|---|
| Flight time | 0h 47m |
| Altitude | 34000 |
| Route | LAM L10 BPK UN601 LESTA UY250 RIMTO |
| Aircraft | A20N/M-SDE2E3FGHIRWXY/LB1 |
Departure
| Time | 2026-04-15 11:45 |
|---|---|
| Airport | London Gatwick Airport (EGKK) |
Arrival
| Time | 2026-04-15 12:32 |
|---|---|
| Airport | Newcastle International Airport (EGNT) |
| Time | Latitude | Longitude | Altitude | Speed | Heading |
|---|---|---|---|---|---|
| 2026-04-15 11:19 | 51.15816 | -0.17954 | 205 ft | 0 kts | 78° |
| 2026-04-15 11:33 | 51.15816 | -0.17961 | 212 ft | 2 kts | 78° |
| 2026-04-15 11:33 | 51.15814 | -0.17969 | 210 ft | 2 kts | 78° |
| 2026-04-15 11:33 | 51.15813 | -0.17981 | 204 ft | 0 kts | 78° |
| 2026-04-15 11:34 | 51.15811 | -0.17991 | 204 ft | 2 kts | 79° |
| 2026-04-15 11:34 | 51.15809 | -0.18015 | 209 ft | 2 kts | 90° |
| 2026-04-15 11:34 | 51.15811 | -0.18038 | 204 ft | 2 kts | 109° |
| 2026-04-15 11:34 | 51.15817 | -0.18059 | 213 ft | 2 kts | 127° |
| 2026-04-15 11:35 | 51.15827 | -0.18076 | 217 ft | 2 kts | 158° |
| 2026-04-15 11:35 | 51.15841 | -0.18083 | 208 ft | 2 kts | 167° |
| 2026-04-15 11:35 | 51.15846 | -0.18084 | 207 ft | 0 kts | 167° |
| 2026-04-15 11:37 | 51.15841 | -0.18082 | 208 ft | 3 kts | 167° |
| 2026-04-15 11:37 | 51.15793 | -0.18065 | 214 ft | 12 kts | 167° |
| 2026-04-15 11:37 | 51.15719 | -0.18038 | 209 ft | 10 kts | 165° |
| 2026-04-15 11:37 | 51.15706 | -0.17920 | 215 ft | 12 kts | 75° |
| 2026-04-15 11:38 | 51.15728 | -0.17766 | 204 ft | 19 kts | 78° |
| 2026-04-15 11:38 | 51.15750 | -0.17601 | 211 ft | 12 kts | 77° |
| 2026-04-15 11:38 | 51.15715 | -0.17500 | 212 ft | 11 kts | 174° |
| 2026-04-15 11:38 | 51.15637 | -0.17472 | 215 ft | 13 kts | 166° |
| 2026-04-15 11:39 | 51.15541 | -0.17438 | 208 ft | 13 kts | 169° |
| 2026-04-15 11:39 | 51.15443 | -0.17408 | 204 ft | 16 kts | 167° |
| 2026-04-15 11:39 | 51.15335 | -0.17367 | 207 ft | 12 kts | 167° |
| 2026-04-15 11:39 | 51.15285 | -0.17349 | 211 ft | 8 kts | 167° |
| 2026-04-15 11:40 | 51.15243 | -0.17290 | 214 ft | 9 kts | 102° |
| 2026-04-15 11:40 | 51.15254 | -0.17173 | 205 ft | 12 kts | 76° |
| 2026-04-15 11:40 | 51.15274 | -0.17023 | 214 ft | 10 kts | 82° |
| 2026-04-15 11:40 | 51.15294 | -0.16895 | 209 ft | 11 kts | 78° |
| 2026-04-15 11:41 | 51.15279 | -0.16836 | 207 ft | 0 kts | 141° |
| 2026-04-15 11:42 | 51.15273 | -0.16829 | 208 ft | 4 kts | 146° |
| 2026-04-15 11:43 | 51.15243 | -0.16814 | 213 ft | 4 kts | 166° |
| 2026-04-15 11:43 | 51.15187 | -0.16795 | 206 ft | 12 kts | 169° |
| 2026-04-15 11:43 | 51.15117 | -0.16834 | 211 ft | 12 kts | 235° |
| 2026-04-15 11:43 | 51.15110 | -0.16891 | 212 ft | 0 kts | 260° |
| 2026-04-15 11:44 | 51.15109 | -0.16895 | 212 ft | 2 kts | 260° |
| 2026-04-15 11:44 | 51.15062 | -0.17238 | 207 ft | 70 kts | 257° |
| 2026-04-15 11:45 | 51.14910 | -0.18332 | 213 ft | 129 kts | 258° |
| 2026-04-15 11:45 | 51.14723 | -0.19848 | 678 ft | 136 kts | 254° |
| 2026-04-15 11:45 | 51.14555 | -0.21270 | 1521 ft | 125 kts | 252° |
| 2026-04-15 11:45 | 51.14413 | -0.22556 | 2095 ft | 117 kts | 250° |
| 2026-04-15 11:46 | 51.14161 | -0.24002 | 2323 ft | 149 kts | 248° |
| 2026-04-15 11:46 | 51.13871 | -0.25691 | 2938 ft | 168 kts | 251° |
| 2026-04-15 11:46 | 51.13589 | -0.27644 | 3550 ft | 193 kts | 256° |
| 2026-04-15 11:46 | 51.13814 | -0.29890 | 3999 ft | 225 kts | 288° |
| 2026-04-15 11:47 | 51.14838 | -0.31847 | 4001 ft | 241 kts | 320° |
| 2026-04-15 11:47 | 51.16449 | -0.32772 | 4005 ft | 256 kts | 351° |
| 2026-04-15 11:47 | 51.18213 | -0.32318 | 3996 ft | 262 kts | 24° |
| 2026-04-15 11:47 | 51.19660 | -0.30542 | 3996 ft | 264 kts | 56° |
| 2026-04-15 11:48 | 51.20379 | -0.27971 | 4001 ft | 251 kts | 86° |
| 2026-04-15 11:48 | 51.20514 | -0.25198 | 4122 ft | 252 kts | 95° |
| 2026-04-15 11:48 | 51.20570 | -0.22395 | 4817 ft | 255 kts | 93° |
| 2026-04-15 11:48 | 51.20721 | -0.19595 | 6049 ft | 255 kts | 90° |
| 2026-04-15 11:49 | 51.20978 | -0.16678 | 6834 ft | 278 kts | 86° |
| 2026-04-15 11:49 | 51.21334 | -0.13547 | 7636 ft | 293 kts | 84° |
| 2026-04-15 11:49 | 51.21736 | -0.10370 | 8480 ft | 299 kts | 83° |
| 2026-04-15 11:49 | 51.22163 | -0.07091 | 9255 ft | 304 kts | 83° |
| 2026-04-15 11:50 | 51.22593 | -0.03769 | 10043 ft | 308 kts | 83° |
| 2026-04-15 11:50 | 51.23027 | -0.00361 | 10777 ft | 321 kts | 83° |
| 2026-04-15 11:50 | 51.23475 | 0.03209 | 11519 ft | 335 kts | 83° |
| 2026-04-15 11:50 | 51.23987 | 0.06910 | 12282 ft | 350 kts | 76° |
| 2026-04-15 11:51 | 51.25156 | 0.10418 | 13031 ft | 370 kts | 54° |
| 2026-04-15 11:51 | 51.27103 | 0.13239 | 13747 ft | 385 kts | 32° |
| 2026-04-15 11:51 | 51.29585 | 0.14879 | 14579 ft | 390 kts | 11° |
| 2026-04-15 11:51 | 51.32286 | 0.15146 | 15378 ft | 391 kts | 350° |
| 2026-04-15 11:52 | 51.34901 | 0.14218 | 16201 ft | 392 kts | 341° |
| 2026-04-15 11:52 | 51.37552 | 0.13087 | 17030 ft | 397 kts | 341° |
| 2026-04-15 11:52 | 51.40243 | 0.11947 | 17846 ft | 403 kts | 341° |
| 2026-04-15 11:52 | 51.42970 | 0.10800 | 18558 ft | 408 kts | 341° |
| 2026-04-15 11:53 | 51.45729 | 0.09641 | 18901 ft | 412 kts | 341° |
| 2026-04-15 11:53 | 51.48506 | 0.08473 | 19024 ft | 413 kts | 341° |
| 2026-04-15 11:53 | 51.51286 | 0.07300 | 19049 ft | 413 kts | 341° |
| 2026-04-15 11:53 | 51.54063 | 0.06127 | 19050 ft | 413 kts | 341° |
| 2026-04-15 11:54 | 51.56839 | 0.04954 | 19054 ft | 413 kts | 341° |
| 2026-04-15 11:54 | 51.59587 | 0.03648 | 19045 ft | 410 kts | 332° |
| 2026-04-15 11:54 | 51.62076 | 0.01460 | 19382 ft | 409 kts | 324° |
| 2026-04-15 11:54 | 51.63684 | -0.00069 | 19924 ft | 410 kts | 324° |
| 2026-04-15 11:55 | 51.66976 | -0.03174 | 20821 ft | 416 kts | 324° |
| 2026-04-15 11:55 | 51.69450 | -0.05503 | 21497 ft | 422 kts | 324° |
| 2026-04-15 11:55 | 51.71997 | -0.07901 | 22159 ft | 427 kts | 324° |
| 2026-04-15 11:55 | 51.74579 | -0.10341 | 22814 ft | 432 kts | 324° |
| 2026-04-15 11:56 | 51.77185 | -0.12810 | 23462 ft | 437 kts | 324° |
| 2026-04-15 11:56 | 51.78933 | -0.14469 | 23840 ft | 440 kts | 324° |
| 2026-04-15 11:56 | 51.81648 | -0.16836 | 24402 ft | 450 kts | 332° |
| 2026-04-15 11:56 | 51.84570 | -0.18728 | 25027 ft | 455 kts | 333° |
| 2026-04-15 11:57 | 51.87532 | -0.20600 | 25548 ft | 459 kts | 333° |
| 2026-04-15 11:57 | 51.94520 | -0.25019 | 26784 ft | 468 kts | 333° |
| 2026-04-15 11:57 | 51.96574 | -0.26327 | 27127 ft | 471 kts | 333° |
| 2026-04-15 11:58 | 52.00630 | -0.28918 | 27758 ft | 476 kts | 333° |
| 2026-04-15 11:58 | 52.02721 | -0.30258 | 28083 ft | 478 kts | 333° |
| 2026-04-15 11:58 | 52.06840 | -0.32900 | 28673 ft | 483 kts | 333° |
| 2026-04-15 11:58 | 52.08918 | -0.34236 | 28971 ft | 486 kts | 333° |
| 2026-04-15 11:59 | 52.12069 | -0.36264 | 29340 ft | 489 kts | 333° |
| 2026-04-15 11:59 | 52.15235 | -0.38303 | 29624 ft | 491 kts | 333° |
| 2026-04-15 11:59 | 52.18422 | -0.40360 | 29907 ft | 494 kts | 333° |
| 2026-04-15 12:00 | 52.25862 | -0.45173 | 29987 ft | 494 kts | 333° |
| 2026-04-15 12:00 | 52.31217 | -0.48648 | 29985 ft | 495 kts | 333° |
| 2026-04-15 12:01 | 52.37568 | -0.52783 | 29971 ft | 495 kts | 333° |
| 2026-04-15 12:01 | 52.43965 | -0.56962 | 29969 ft | 495 kts | 333° |
| 2026-04-15 12:02 | 52.50369 | -0.61158 | 29966 ft | 496 kts | 333° |
| 2026-04-15 12:02 | 52.56772 | -0.65367 | 29962 ft | 496 kts | 333° |
| 2026-04-15 12:03 | 52.63143 | -0.69567 | 29970 ft | 497 kts | 333° |
| 2026-04-15 12:03 | 52.69560 | -0.73812 | 29965 ft | 497 kts | 333° |
| 2026-04-15 12:04 | 52.75983 | -0.78074 | 29971 ft | 498 kts | 333° |
| 2026-04-15 12:04 | 52.82413 | -0.82354 | 29971 ft | 498 kts | 333° |
| 2026-04-15 12:05 | 52.88848 | -0.86652 | 29967 ft | 499 kts | 333° |
| 2026-04-15 12:05 | 52.95246 | -0.90939 | 29963 ft | 500 kts | 333° |
| 2026-04-15 12:06 | 53.01698 | -0.95276 | 29957 ft | 500 kts | 333° |
| 2026-04-15 12:06 | 53.08147 | -0.99626 | 29953 ft | 501 kts | 333° |
| 2026-04-15 12:07 | 53.14607 | -1.03996 | 29946 ft | 501 kts | 333° |
| 2026-04-15 12:07 | 53.21025 | -1.08352 | 29933 ft | 502 kts | 333° |
| 2026-04-15 12:08 | 53.27536 | -1.12786 | 29926 ft | 502 kts | 333° |
| 2026-04-15 12:08 | 53.33966 | -1.17179 | 29922 ft | 503 kts | 333° |
| 2026-04-15 12:09 | 53.40453 | -1.21626 | 29915 ft | 504 kts | 333° |
| 2026-04-15 12:09 | 53.46949 | -1.26093 | 29914 ft | 505 kts | 333° |
| 2026-04-15 12:10 | 53.53407 | -1.30550 | 29901 ft | 507 kts | 333° |
| 2026-04-15 12:10 | 53.59920 | -1.35058 | 29898 ft | 506 kts | 333° |
| 2026-04-15 12:11 | 53.66443 | -1.39588 | 29888 ft | 507 kts | 333° |
| 2026-04-15 12:11 | 53.72869 | -1.44431 | 29561 ft | 502 kts | 324° |
| 2026-04-15 12:11 | 53.75853 | -1.47469 | 28908 ft | 500 kts | 323° |
| 2026-04-15 12:12 | 53.78817 | -1.50502 | 28284 ft | 495 kts | 323° |
| 2026-04-15 12:12 | 53.81712 | -1.53429 | 27680 ft | 489 kts | 324° |
| 2026-04-15 12:12 | 53.84607 | -1.56353 | 27085 ft | 482 kts | 323° |
| 2026-04-15 12:12 | 53.87465 | -1.59257 | 26489 ft | 476 kts | 323° |
| 2026-04-15 12:13 | 53.90279 | -1.62139 | 25885 ft | 470 kts | 323° |
| 2026-04-15 12:13 | 53.93062 | -1.65000 | 25430 ft | 462 kts | 323° |
| 2026-04-15 12:13 | 53.95747 | -1.67763 | 25202 ft | 441 kts | 323° |
| 2026-04-15 12:13 | 53.98310 | -1.70403 | 25031 ft | 424 kts | 323° |
| 2026-04-15 12:14 | 54.00785 | -1.72962 | 24910 ft | 409 kts | 322° |
| 2026-04-15 12:14 | 54.03172 | -1.75434 | 24856 ft | 394 kts | 322° |
| 2026-04-15 12:14 | 54.05440 | -1.77785 | 24710 ft | 379 kts | 322° |
| 2026-04-15 12:14 | 54.07656 | -1.80083 | 24329 ft | 369 kts | 322° |
| 2026-04-15 12:15 | 54.09840 | -1.82362 | 23752 ft | 370 kts | 322° |
| 2026-04-15 12:15 | 54.12133 | -1.84752 | 23131 ft | 402 kts | 326° |
| 2026-04-15 12:15 | 54.14799 | -1.86435 | 22437 ft | 412 kts | 347° |
| 2026-04-15 12:15 | 54.17629 | -1.86625 | 21881 ft | 405 kts | 8° |
| 2026-04-15 12:16 | 54.20344 | -1.85675 | 21459 ft | 391 kts | 16° |
| 2026-04-15 12:16 | 54.22923 | -1.84493 | 21167 ft | 379 kts | 16° |
| 2026-04-15 12:16 | 54.25453 | -1.83400 | 20622 ft | 381 kts | 14° |
| 2026-04-15 12:16 | 54.28032 | -1.82419 | 20009 ft | 378 kts | 13° |
| 2026-04-15 12:17 | 54.30603 | -1.81539 | 19399 ft | 375 kts | 12° |
| 2026-04-15 12:17 | 54.33156 | -1.80715 | 18794 ft | 372 kts | 11° |
| 2026-04-15 12:17 | 54.35693 | -1.79915 | 18208 ft | 369 kts | 11° |
| 2026-04-15 12:17 | 54.38216 | -1.79124 | 17435 ft | 369 kts | 11° |
| 2026-04-15 12:18 | 54.40746 | -1.78330 | 16663 ft | 370 kts | 11° |
| 2026-04-15 12:18 | 54.43257 | -1.77540 | 16016 ft | 366 kts | 11° |
| 2026-04-15 12:18 | 54.45727 | -1.76760 | 15246 ft | 367 kts | 11° |
| 2026-04-15 12:18 | 54.48233 | -1.75968 | 14549 ft | 366 kts | 11° |
| 2026-04-15 12:19 | 54.50723 | -1.75180 | 13910 ft | 362 kts | 11° |
| 2026-04-15 12:19 | 54.53197 | -1.74395 | 13155 ft | 361 kts | 11° |
| 2026-04-15 12:19 | 54.55685 | -1.73601 | 12089 ft | 367 kts | 11° |
| 2026-04-15 12:19 | 54.58237 | -1.72785 | 10908 ft | 377 kts | 10° |
| 2026-04-15 12:20 | 54.60780 | -1.71970 | 10464 ft | 362 kts | 11° |
| 2026-04-15 12:20 | 54.63064 | -1.70512 | 10196 ft | 342 kts | 34° |
| 2026-04-15 12:20 | 54.64935 | -1.68175 | 9924 ft | 323 kts | 40° |
| 2026-04-15 12:20 | 54.66657 | -1.65908 | 9687 ft | 307 kts | 40° |
| 2026-04-15 12:21 | 54.68309 | -1.63739 | 9508 ft | 290 kts | 40° |
| 2026-04-15 12:21 | 54.69893 | -1.61660 | 9124 ft | 283 kts | 40° |
| 2026-04-15 12:21 | 54.71454 | -1.59614 | 8633 ft | 281 kts | 40° |
| 2026-04-15 12:21 | 54.73001 | -1.57577 | 8151 ft | 278 kts | 40° |
| 2026-04-15 12:22 | 54.74537 | -1.55552 | 7658 ft | 278 kts | 40° |
| 2026-04-15 12:22 | 54.75871 | -1.53794 | 7251 ft | 276 kts | 40° |
| 2026-04-15 12:22 | 54.77325 | -1.51873 | 6816 ft | 275 kts | 40° |
| 2026-04-15 12:22 | 54.78832 | -1.49860 | 6382 ft | 272 kts | 40° |
| 2026-04-15 12:23 | 54.80301 | -1.47896 | 5964 ft | 270 kts | 40° |
| 2026-04-15 12:23 | 54.81786 | -1.45920 | 5493 ft | 269 kts | 40° |
| 2026-04-15 12:23 | 54.83272 | -1.43937 | 5024 ft | 269 kts | 40° |
| 2026-04-15 12:23 | 54.84761 | -1.41986 | 4631 ft | 267 kts | 36° |
| 2026-04-15 12:24 | 54.86336 | -1.40364 | 4306 ft | 258 kts | 30° |
| 2026-04-15 12:24 | 54.87865 | -1.38903 | 4103 ft | 245 kts | 30° |
| 2026-04-15 12:24 | 54.89358 | -1.37500 | 3735 ft | 242 kts | 30° |
| 2026-04-15 12:24 | 54.90830 | -1.36114 | 3342 ft | 241 kts | 30° |
| 2026-04-15 12:25 | 54.92304 | -1.34729 | 2858 ft | 244 kts | 30° |
| 2026-04-15 12:25 | 54.93859 | -1.33842 | 2713 ft | 235 kts | 0° |
| 2026-04-15 12:25 | 54.95472 | -1.34037 | 2575 ft | 232 kts | 351° |
| 2026-04-15 12:25 | 54.97056 | -1.34384 | 2510 ft | 224 kts | 350° |
| 2026-04-15 12:26 | 54.98557 | -1.34690 | 2500 ft | 210 kts | 350° |
| 2026-04-15 12:26 | 55.00044 | -1.34991 | 2517 ft | 216 kts | 350° |
| 2026-04-15 12:26 | 55.01510 | -1.35366 | 2504 ft | 210 kts | 338° |
| 2026-04-15 12:26 | 55.02825 | -1.36431 | 2507 ft | 207 kts | 322° |
| 2026-04-15 12:27 | 55.04025 | -1.37807 | 2507 ft | 206 kts | 320° |
| 2026-04-15 12:27 | 55.05202 | -1.39184 | 2507 ft | 206 kts | 318° |
| 2026-04-15 12:27 | 55.06286 | -1.40790 | 2507 ft | 203 kts | 310° |
| 2026-04-15 12:27 | 55.07324 | -1.42461 | 2505 ft | 203 kts | 310° |
| 2026-04-15 12:28 | 55.08363 | -1.44136 | 2504 ft | 203 kts | 309° |
| 2026-04-15 12:28 | 55.09081 | -1.46073 | 2500 ft | 179 kts | 276° |
| 2026-04-15 12:28 | 55.09143 | -1.48026 | 2501 ft | 146 kts | 251° |
| 2026-04-15 12:28 | 55.08901 | -1.49618 | 2433 ft | 128 kts | 239° |
| 2026-04-15 12:29 | 55.08570 | -1.50978 | 2292 ft | 120 kts | 234° |
| 2026-04-15 12:29 | 55.08207 | -1.52310 | 2144 ft | 120 kts | 236° |
| 2026-04-15 12:29 | 55.07884 | -1.53546 | 1999 ft | 112 kts | 234° |
| 2026-04-15 12:29 | 55.07550 | -1.54795 | 1847 ft | 115 kts | 235° |
| 2026-04-15 12:30 | 55.07217 | -1.56058 | 1704 ft | 114 kts | 235° |
| 2026-04-15 12:30 | 55.06880 | -1.57323 | 1585 ft | 117 kts | 236° |
| 2026-04-15 12:30 | 55.06453 | -1.58698 | 1375 ft | 143 kts | 234° |
| 2026-04-15 12:30 | 55.06035 | -1.60408 | 1368 ft | 145 kts | 243° |
| 2026-04-15 12:31 | 55.05719 | -1.61965 | 1150 ft | 132 kts | 240° |
| 2026-04-15 12:31 | 55.05346 | -1.63383 | 871 ft | 126 kts | 237° |
| 2026-04-15 12:31 | 55.04966 | -1.64678 | 723 ft | 117 kts | 236° |
| 2026-04-15 12:31 | 55.04606 | -1.65929 | 510 ft | 115 kts | 238° |
| 2026-04-15 12:32 | 55.04286 | -1.67158 | 308 ft | 110 kts | 238° |
| 2026-04-15 12:32 | 55.03978 | -1.68322 | 249 ft | 96 kts | 239° |
| 2026-04-15 12:32 | 55.03786 | -1.68982 | 252 ft | 32 kts | 246° |
| 2026-04-15 12:32 | 55.03734 | -1.69190 | 254 ft | 2 kts | 250° |
| 2026-04-15 12:33 | 55.03715 | -1.69268 | 255 ft | 14 kts | 244° |
| 2026-04-15 12:33 | 55.03651 | -1.69502 | 257 ft | 28 kts | 245° |
| 2026-04-15 12:33 | 55.03587 | -1.69786 | 260 ft | 13 kts | 247° |
| 2026-04-15 12:33 | 55.03586 | -1.69962 | 261 ft | 18 kts | 271° |
| 2026-04-15 12:34 | 55.03591 | -1.70166 | 264 ft | 3 kts | 275° |
| 2026-04-15 12:34 | 55.03596 | -1.70255 | 265 ft | 12 kts | 275° |
| 2026-04-15 12:34 | 55.03602 | -1.70385 | 267 ft | 14 kts | 272° |
| 2026-04-15 12:34 | 55.03606 | -1.70436 | 267 ft | 1 kts | 316° |
| 2026-04-15 12:35 | 55.03682 | -1.70437 | 267 ft | 19 kts | 5° |
| 2026-04-15 12:35 | 55.03791 | -1.70472 | 267 ft | 13 kts | 294° |
| 2026-04-15 12:35 | 55.03802 | -1.70599 | 267 ft | 7 kts | 271° |
| 2026-04-15 12:35 | 55.03778 | -1.70659 | 267 ft | 5 kts | 199° |
| 2026-04-15 12:36 | 55.03751 | -1.70668 | 267 ft | 1 kts | 185° |
| 2026-04-15 12:36 | 55.03737 | -1.70670 | 267 ft | 1 kts | 185° |
| 2026-04-15 12:36 | 55.03732 | -1.70671 | 267 ft | 0 kts | 185° |